createdAt,value
2022-09-15T00:01:10.270Z,21.60
2022-09-15T00:03:38.060Z,21.60
2022-09-15T00:06:06.301Z,21.50
2022-09-15T00:08:33.913Z,21.60
2022-09-15T00:11:09.612Z,21.60
2022-09-15T00:13:38.953Z,21.60
2022-09-15T00:16:07.682Z,21.60
2022-09-15T00:18:36.402Z,21.50
2022-09-15T00:21:10.177Z,21.40
2022-09-15T00:23:38.197Z,21.40
2022-09-15T00:26:12.601Z,21.30
2022-09-15T00:28:41.646Z,21.30
2022-09-15T00:31:13.072Z,21.20
2022-09-15T00:33:41.393Z,21.20
2022-09-15T00:36:12.043Z,21.20
2022-09-15T00:38:40.291Z,21.20
2022-09-15T00:41:09.951Z,21.20
2022-09-15T00:43:48.687Z,21.20
2022-09-15T00:46:19.760Z,21.20
2022-09-15T00:48:56.286Z,21.20
2022-09-15T00:51:50.375Z,21.20
2022-09-15T00:54:32.618Z,21.20
2022-09-15T00:57:06.926Z,21.30
2022-09-15T00:59:37.245Z,21.20
2022-09-15T01:02:18.919Z,21.10
2022-09-15T01:04:46.940Z,21.10
2022-09-15T01:07:18.510Z,21.00
2022-09-15T01:09:56.994Z,21.00
2022-09-15T01:12:25.851Z,21.00
2022-09-15T01:14:53.299Z,21.00
2022-09-15T01:17:36.866Z,21.00
2022-09-15T01:20:17.201Z,21.00
2022-09-15T01:23:03.295Z,21.00
2022-09-15T01:25:49.197Z,21.10
2022-09-15T01:28:36.307Z,21.10
2022-09-15T01:31:29.480Z,21.10
2022-09-15T01:34:10.114Z,21.00
2022-09-15T01:36:55.734Z,21.00
2022-09-15T01:39:30.385Z,21.00
2022-09-15T01:42:02.089Z,21.00
2022-09-15T01:44:51.926Z,21.00
2022-09-15T01:47:21.042Z,21.00
2022-09-15T01:50:13.710Z,21.00
2022-09-15T01:52:46.986Z,21.00
2022-09-15T01:55:42.313Z,21.00
2022-09-15T01:58:09.759Z,21.00
2022-09-15T02:00:47.749Z,21.00
2022-09-15T02:03:44.687Z,20.80
2022-09-15T02:06:43.175Z,20.80
2022-09-15T02:09:20.875Z,20.60
2022-09-15T02:11:59.096Z,20.50
2022-09-15T02:14:52.238Z,20.40
2022-09-15T02:17:21.302Z,20.30
2022-09-15T02:19:57.779Z,20.40
2022-09-15T02:22:29.102Z,20.40
2022-09-15T02:25:08.096Z,20.40
2022-09-15T02:27:44.642Z,20.40
2022-09-15T02:30:15.707Z,20.50
2022-09-15T02:32:52.225Z,20.50
2022-09-15T02:35:19.881Z,20.60
2022-09-15T02:37:48.459Z,20.60
2022-09-15T02:40:16.011Z,20.60
2022-09-15T02:42:53.357Z,20.60
2022-09-15T02:45:22.372Z,20.60
2022-09-15T02:47:50.370Z,20.60
2022-09-15T02:50:18.951Z,20.60
2022-09-15T02:52:47.946Z,20.70
2022-09-15T02:55:16.360Z,20.70
2022-09-15T02:57:43.749Z,20.70
2022-09-15T03:00:15.699Z,20.60
2022-09-15T03:02:50.115Z,20.60
2022-09-15T03:05:19.885Z,20.60
2022-09-15T03:07:47.275Z,20.60
2022-09-15T03:10:14.911Z,20.40
2022-09-15T03:12:48.310Z,20.30
2022-09-15T03:15:18.381Z,20.30
2022-09-15T03:17:47.042Z,20.20
2022-09-15T03:20:23.293Z,20.30
2022-09-15T03:22:51.074Z,20.30
2022-09-15T03:25:18.602Z,20.30
2022-09-15T03:27:46.106Z,20.30
2022-09-15T03:30:14.198Z,20.30
2022-09-15T03:32:41.770Z,20.20
2022-09-15T03:35:09.819Z,20.20
2022-09-15T03:37:37.409Z,20.20
2022-09-15T03:40:05.396Z,20.20
2022-09-15T03:42:32.879Z,20.20
2022-09-15T03:45:00.341Z,20.10
2022-09-15T03:47:27.751Z,20.20
2022-09-15T03:49:55.325Z,20.20
2022-09-15T03:52:22.707Z,20.20
2022-09-15T03:54:50.192Z,20.10
2022-09-15T03:57:17.623Z,20.10
2022-09-15T03:59:45.299Z,20.20
2022-09-15T04:02:12.752Z,20.20
2022-09-15T04:04:40.146Z,20.20
2022-09-15T04:07:09.081Z,20.20
2022-09-15T04:09:37.373Z,20.20
2022-09-15T04:12:05.024Z,20.30
2022-09-15T04:14:34.312Z,20.30
2022-09-15T04:17:01.718Z,20.20
2022-09-15T04:19:29.490Z,20.10
2022-09-15T04:21:57.669Z,20.00
2022-09-15T04:24:25.038Z,19.90
2022-09-15T04:26:52.443Z,19.90
2022-09-15T04:29:20.025Z,19.90
2022-09-15T04:31:48.269Z,19.90
2022-09-15T04:34:15.797Z,20.00
2022-09-15T04:36:43.245Z,20.00
2022-09-15T04:39:10.611Z,20.00
2022-09-15T04:41:38.562Z,20.10
2022-09-15T04:44:05.938Z,20.10
2022-09-15T04:46:33.402Z,20.10
2022-09-15T04:49:00.800Z,20.10
2022-09-15T04:51:28.225Z,20.20
2022-09-15T04:53:55.620Z,20.10
2022-09-15T04:56:25.740Z,20.10
2022-09-15T04:59:04.018Z,20.20
2022-09-15T05:01:34.167Z,20.20
2022-09-15T05:04:05.940Z,20.10
2022-09-15T05:06:35.020Z,20.20
2022-09-15T05:09:09.020Z,20.10
2022-09-15T05:11:38.114Z,20.10
2022-09-15T05:14:05.918Z,20.10
2022-09-15T05:16:36.628Z,20.10
2022-09-15T05:19:04.761Z,20.10
2022-09-15T05:21:32.546Z,20.20
2022-09-15T05:23:59.972Z,20.30
2022-09-15T05:26:29.639Z,20.30
2022-09-15T05:28:57.839Z,20.40
2022-09-15T05:31:28.146Z,20.40
2022-09-15T05:33:55.633Z,20.40
2022-09-15T05:36:27.585Z,20.40
2022-09-15T05:38:58.751Z,20.30
2022-09-15T05:41:28.083Z,20.40
2022-09-15T05:43:57.207Z,20.30
2022-09-15T05:46:29.149Z,20.30
2022-09-15T05:48:58.408Z,20.30
2022-09-15T05:51:25.991Z,20.40
2022-09-15T05:53:53.702Z,20.40
2022-09-15T05:56:21.237Z,20.50
2022-09-15T05:58:49.432Z,20.60
2022-09-15T06:01:18.710Z,20.60
2022-09-15T06:03:46.718Z,20.80
2022-09-15T06:06:14.257Z,20.90
2022-09-15T06:08:57.982Z,21.10
2022-09-15T06:11:29.302Z,21.30
2022-09-15T06:14:00.103Z,21.40
2022-09-15T06:16:27.630Z,21.50
2022-09-15T06:18:55.142Z,21.70
2022-09-15T06:21:25.131Z,21.80
2022-09-15T06:23:58.171Z,21.80
2022-09-15T06:26:26.449Z,21.70
2022-09-15T06:28:59.344Z,21.60
2022-09-15T06:31:28.473Z,21.40
2022-09-15T06:33:57.714Z,21.40
2022-09-15T06:36:29.771Z,21.30
2022-09-15T06:38:58.450Z,21.30
2022-09-15T06:41:33.036Z,21.20
2022-09-15T06:44:21.093Z,21.10
2022-09-15T06:46:49.356Z,21.10
2022-09-15T06:49:17.127Z,21.30
2022-09-15T06:51:44.836Z,21.40
2022-09-15T06:54:12.272Z,21.50
2022-09-15T06:56:39.645Z,21.60
2022-09-15T06:59:07.386Z,21.70
2022-09-15T07:01:35.035Z,21.90
2022-09-15T07:04:08.326Z,22.20
2022-09-15T07:06:37.826Z,22.50
2022-09-15T07:09:06.337Z,22.90
2022-09-15T07:11:34.599Z,23.10
2022-09-15T07:14:01.994Z,23.40
2022-09-15T07:16:29.850Z,24.20
2022-09-15T07:19:00.451Z,24.90
2022-09-15T07:21:28.469Z,25.20
2022-09-15T07:24:01.473Z,25.20
2022-09-15T07:26:31.288Z,25.10
2022-09-15T07:29:01.264Z,25.10
2022-09-15T07:31:32.137Z,24.60
2022-09-15T07:34:01.052Z,24.40
2022-09-15T07:36:29.100Z,24.40
2022-09-15T07:38:57.150Z,24.40
2022-09-15T07:41:29.798Z,24.50
2022-09-15T07:43:59.956Z,24.80
2022-09-15T07:46:30.628Z,25.40
2022-09-15T07:48:58.141Z,26.10
2022-09-15T07:51:26.482Z,27.00
2022-09-15T07:53:54.575Z,27.60
2022-09-15T07:56:23.807Z,28.30
2022-09-15T07:58:51.381Z,29.20
2022-09-15T08:01:20.601Z,30.20
2022-09-15T08:03:50.662Z,31.50
2022-09-15T08:06:20.529Z,32.30
2022-09-15T08:08:49.111Z,32.90
2022-09-15T08:11:19.212Z,32.30
2022-09-15T08:13:47.975Z,32.50
2022-09-15T08:16:18.100Z,32.50
2022-09-15T08:18:45.796Z,33.10
2022-09-15T08:21:20.323Z,33.60
2022-09-15T08:23:52.654Z,34.10
2022-09-15T08:26:20.176Z,34.60
2022-09-15T08:28:48.364Z,34.90
2022-09-15T08:31:16.675Z,35.10
2022-09-15T08:33:49.683Z,35.40
2022-09-15T08:36:17.629Z,35.80
2022-09-15T08:38:46.152Z,36.40
2022-09-15T08:41:32.448Z,36.30
2022-09-15T08:44:17.334Z,36.70
2022-09-15T08:46:52.481Z,36.70
2022-09-15T08:49:50.030Z,36.60
2022-09-15T08:52:41.194Z,36.80
2022-09-15T08:55:41.516Z,36.90
2022-09-15T08:58:18.873Z,37.80
2022-09-15T09:00:52.246Z,37.80
2022-09-15T09:03:41.161Z,38.00
2022-09-15T09:06:47.713Z,38.50
2022-09-15T09:09:15.016Z,38.40
2022-09-15T09:12:00.474Z,38.50
2022-09-15T09:14:39.818Z,38.60
2022-09-15T09:17:13.305Z,38.10
2022-09-15T09:19:59.263Z,38.30
2022-09-15T09:22:32.049Z,38.60
2022-09-15T09:25:11.550Z,38.50
2022-09-15T09:27:49.687Z,38.90
2022-09-15T09:30:19.721Z,39.00
2022-09-15T09:33:08.007Z,39.40
2022-09-15T09:35:43.511Z,39.60
2022-09-15T09:38:12.435Z,39.90
2022-09-15T09:40:41.450Z,40.10
2022-09-15T09:43:09.781Z,39.90
2022-09-15T09:45:37.432Z,39.80
2022-09-15T09:48:15.451Z,39.80
2022-09-15T09:50:43.666Z,39.70
2022-09-15T09:53:22.924Z,38.90
2022-09-15T09:55:50.334Z,38.90
2022-09-15T09:58:23.411Z,39.30
2022-09-15T10:00:54.266Z,39.70
2022-09-15T10:03:29.434Z,40.20
2022-09-15T10:06:12.831Z,40.30
2022-09-15T10:08:53.452Z,40.50
2022-09-15T10:11:20.983Z,40.30
2022-09-15T10:13:54.742Z,40.30
2022-09-15T10:16:24.121Z,40.30
2022-09-15T10:18:57.593Z,40.30
2022-09-15T10:21:26.068Z,40.00
2022-09-15T10:23:53.606Z,39.60
2022-09-15T10:26:34.706Z,39.40
2022-09-15T10:29:17.910Z,39.70
2022-09-15T10:31:46.022Z,39.80
2022-09-15T10:34:39.450Z,39.60
2022-09-15T10:37:16.023Z,39.60
2022-09-15T10:39:56.940Z,39.70
2022-09-15T10:42:51.484Z,39.90
2022-09-15T10:45:32.552Z,39.80
2022-09-15T10:48:27.135Z,39.60
2022-09-15T10:51:06.233Z,39.40
2022-09-15T10:54:03.165Z,39.20
2022-09-15T10:56:43.063Z,38.90
2022-09-15T10:59:43.191Z,38.30
2022-09-15T11:02:49.690Z,37.10
2022-09-15T11:05:27.654Z,35.70
2022-09-15T11:08:20.566Z,34.60
2022-09-15T11:10:51.039Z,33.80
2022-09-15T11:13:34.047Z,33.30
2022-09-15T11:16:26.393Z,33.10
2022-09-15T11:19:01.871Z,32.90
2022-09-15T11:21:51.934Z,32.70
2022-09-15T11:25:10.579Z,32.40
2022-09-15T11:27:44.774Z,32.40
2022-09-15T11:30:30.778Z,32.30
2022-09-15T11:33:17.079Z,32.10
2022-09-15T11:35:56.506Z,32.20
2022-09-15T11:38:37.155Z,32.20
2022-09-15T11:41:49.564Z,32.30
2022-09-15T11:44:25.926Z,32.50
2022-09-15T11:47:20.633Z,32.40
2022-09-15T11:49:56.726Z,32.30
2022-09-15T11:53:00.290Z,32.20
2022-09-15T11:55:35.922Z,31.90
2022-09-15T11:58:33.005Z,31.90
2022-09-15T12:01:11.218Z,31.90
2022-09-15T12:03:53.633Z,31.70
2022-09-15T12:06:45.748Z,31.60
2022-09-15T12:09:16.796Z,31.40
2022-09-15T12:11:55.342Z,31.40
2022-09-15T12:14:43.539Z,31.40
2022-09-15T12:17:57.188Z,31.60
2022-09-15T12:20:46.427Z,31.70
2022-09-15T12:23:24.759Z,31.60
2022-09-15T12:26:10.770Z,31.60
2022-09-15T12:28:39.311Z,31.60
2022-09-15T12:31:30.911Z,31.70
2022-09-15T12:34:04.369Z,31.80
2022-09-15T12:36:37.565Z,32.00
2022-09-15T12:39:27.710Z,32.00
2022-09-15T12:42:00.281Z,32.00
2022-09-15T12:44:37.890Z,32.00
2022-09-15T12:47:17.310Z,32.00
2022-09-15T12:49:47.806Z,32.10
2022-09-15T12:52:16.550Z,32.10
2022-09-15T12:54:51.727Z,32.10
2022-09-15T12:57:37.970Z,32.20
2022-09-15T13:00:20.654Z,32.20
2022-09-15T13:02:50.275Z,32.20
2022-09-15T13:05:42.357Z,32.10
2022-09-15T13:08:31.855Z,31.90
2022-09-15T13:11:09.394Z,31.80
2022-09-15T13:13:45.428Z,31.80
2022-09-15T13:16:18.346Z,31.70
2022-09-15T13:18:47.545Z,31.90
2022-09-15T13:21:21.144Z,31.70
2022-09-15T13:23:52.867Z,31.50
2022-09-15T13:26:25.599Z,31.40
2022-09-15T13:28:56.340Z,31.20
2022-09-15T13:31:37.734Z,31.00
2022-09-15T13:40:59.860Z,30.50
2022-09-15T13:43:45.413Z,30.30
2022-09-15T13:46:24.890Z,30.30
2022-09-15T13:49:07.442Z,30.30
2022-09-15T13:51:35.771Z,30.40
2022-09-15T13:54:06.791Z,30.30
2022-09-15T13:56:40.005Z,30.30
2022-09-15T13:59:16.769Z,30.40
2022-09-15T14:01:45.328Z,30.60
2022-09-15T14:04:17.119Z,30.60
2022-09-15T14:06:49.951Z,30.60
2022-09-15T14:09:22.124Z,30.60
2022-09-15T14:11:53.658Z,30.40
2022-09-15T14:14:43.355Z,30.30
2022-09-15T14:17:26.765Z,30.10
2022-09-15T14:19:59.997Z,30.00
2022-09-15T14:22:32.282Z,29.90
2022-09-15T14:25:06.851Z,29.80
2022-09-15T14:27:36.563Z,29.70
2022-09-15T14:30:08.124Z,29.60
2022-09-15T14:32:43.944Z,29.60
2022-09-15T14:35:19.848Z,29.50
2022-09-15T14:38:05.829Z,29.40
2022-09-15T14:40:38.741Z,29.40
2022-09-15T14:43:31.298Z,29.40
2022-09-15T14:46:27.957Z,29.20
2022-09-15T14:49:09.648Z,29.10
2022-09-15T14:51:37.680Z,29.10
2022-09-15T14:54:07.863Z,29.10
2022-09-15T14:56:37.737Z,28.80
2022-09-15T14:59:15.292Z,28.70
2022-09-15T15:02:14.938Z,28.50
2022-09-15T15:04:46.955Z,28.50
2022-09-15T15:07:26.303Z,28.80
2022-09-15T15:10:01.164Z,29.00
2022-09-15T15:12:56.684Z,28.90
2022-09-15T15:15:24.354Z,28.90
2022-09-15T15:17:54.866Z,28.80
2022-09-15T15:20:30.171Z,28.60
2022-09-15T15:23:10.074Z,28.40
2022-09-15T15:25:41.724Z,28.30
2022-09-15T15:28:28.801Z,28.20
2022-09-15T15:31:16.235Z,28.20
2022-09-15T15:33:59.607Z,28.10
2022-09-15T15:36:29.747Z,28.10
2022-09-15T15:39:00.378Z,28.00
2022-09-15T15:41:30.541Z,28.10
2022-09-15T15:43:59.048Z,28.20
2022-09-15T15:46:53.858Z,28.20
2022-09-15T15:49:25.968Z,28.30
2022-09-15T15:51:53.736Z,28.20
2022-09-15T15:54:21.371Z,28.10
2022-09-15T15:56:49.318Z,28.10
2022-09-15T15:59:18.014Z,28.10
2022-09-15T16:01:51.509Z,28.20
2022-09-15T16:04:19.239Z,28.10
2022-09-15T16:06:48.069Z,28.00
2022-09-15T16:09:18.485Z,27.90
2022-09-15T16:11:48.189Z,27.80
2022-09-15T16:14:17.941Z,27.80
2022-09-15T16:16:47.429Z,27.80
2022-09-15T16:19:15.138Z,27.70
2022-09-15T16:21:42.690Z,27.60
2022-09-15T16:24:15.116Z,27.60
2022-09-15T16:26:43.153Z,27.50
2022-09-15T16:29:11.039Z,27.40
2022-09-15T16:31:38.793Z,27.30
2022-09-15T16:34:06.325Z,27.30
2022-09-15T16:36:36.274Z,27.30
2022-09-15T16:39:03.939Z,27.20
2022-09-15T16:41:33.064Z,27.20
2022-09-15T16:44:04.083Z,27.00
2022-09-15T16:46:31.495Z,27.00
2022-09-15T16:48:59.088Z,27.00
2022-09-15T16:51:30.856Z,26.90
2022-09-15T16:53:59.498Z,26.80
2022-09-15T16:56:27.370Z,26.70
2022-09-15T16:59:00.443Z,26.70
2022-09-15T17:01:30.158Z,26.60
2022-09-15T17:03:57.937Z,26.60
2022-09-15T17:06:25.470Z,26.50
2022-09-15T17:08:53.128Z,26.40
2022-09-15T17:11:22.168Z,26.30
2022-09-15T17:13:50.852Z,26.20
2022-09-15T17:16:21.164Z,26.20
2022-09-15T17:18:49.746Z,26.10
2022-09-15T17:21:19.708Z,26.00
2022-09-15T17:23:49.266Z,26.00
2022-09-15T17:26:21.716Z,26.00
2022-09-15T17:28:49.452Z,25.90
2022-09-15T17:31:19.545Z,25.90
2022-09-15T17:33:47.699Z,25.80
2022-09-15T17:36:15.872Z,25.70
2022-09-15T17:38:45.345Z,25.70
2022-09-15T17:41:17.930Z,25.60
2022-09-15T17:43:46.260Z,25.60
2022-09-15T17:46:13.916Z,25.50
2022-09-15T17:48:43.312Z,25.50
2022-09-15T17:51:18.338Z,25.50
2022-09-15T17:53:48.307Z,25.40
2022-09-15T17:56:17.316Z,25.30
2022-09-15T17:58:45.815Z,25.30
2022-09-15T18:01:14.752Z,25.20
2022-09-15T18:03:44.799Z,25.10
2022-09-15T18:06:12.585Z,25.10
2022-09-15T18:08:40.067Z,25.00
2022-09-15T18:11:07.920Z,25.00
2022-09-15T18:13:35.975Z,25.00
2022-09-15T18:16:05.773Z,25.00
2022-09-15T18:18:33.680Z,24.90
2022-09-15T18:21:01.485Z,24.90
2022-09-15T18:23:29.648Z,24.90
2022-09-15T18:25:57.601Z,24.90
2022-09-15T18:28:25.096Z,24.90
2022-09-15T18:30:52.778Z,24.80
2022-09-15T18:33:25.420Z,24.90
2022-09-15T18:35:55.203Z,24.90
2022-09-15T18:38:23.795Z,24.90
2022-09-15T18:40:55.213Z,24.80
2022-09-15T18:43:25.250Z,24.80
2022-09-15T18:46:00.002Z,24.80
2022-09-15T18:48:28.164Z,24.80
2022-09-15T18:50:56.110Z,24.70
2022-09-15T18:53:23.898Z,24.70
2022-09-15T18:55:51.533Z,24.70
2022-09-15T18:58:22.696Z,24.60
2022-09-15T19:00:50.252Z,24.50
2022-09-15T19:03:17.666Z,24.50
2022-09-15T19:05:46.014Z,24.40
2022-09-15T19:08:13.594Z,24.30
2022-09-15T19:10:43.849Z,24.20
2022-09-15T19:13:13.911Z,24.10
2022-09-15T19:15:41.779Z,24.10
2022-09-15T19:18:09.157Z,24.10
2022-09-15T19:20:36.990Z,24.10
2022-09-15T19:23:04.393Z,24.00
2022-09-15T19:25:32.179Z,23.80
2022-09-15T19:27:59.591Z,23.60
2022-09-15T19:30:27.137Z,23.40
2022-09-15T19:32:54.554Z,23.30
2022-09-15T19:35:23.016Z,23.10
2022-09-15T19:37:53.092Z,23.10
2022-09-15T19:40:23.667Z,23.10
2022-09-15T19:42:51.327Z,23.00
2022-09-15T19:45:18.770Z,22.90
2022-09-15T19:47:46.199Z,22.90
2022-09-15T19:50:13.634Z,22.90
2022-09-15T19:52:41.036Z,22.90
2022-09-15T19:55:09.796Z,22.90
2022-09-15T19:57:41.869Z,23.00
2022-09-15T20:00:11.844Z,23.00
2022-09-15T20:02:39.801Z,23.00
2022-09-15T20:05:08.127Z,23.00
2022-09-15T20:07:35.602Z,23.00
2022-09-15T20:10:03.726Z,23.10
2022-09-15T20:12:31.339Z,23.10
2022-09-15T20:14:58.750Z,23.10
2022-09-15T20:17:26.215Z,23.10
2022-09-15T20:19:53.774Z,23.20
2022-09-15T20:22:21.182Z,23.20
2022-09-15T20:24:48.758Z,23.20
2022-09-15T20:27:17.057Z,23.20
2022-09-15T20:29:44.937Z,23.20
2022-09-15T20:32:12.383Z,23.20
2022-09-15T20:34:39.851Z,23.20
2022-09-15T20:37:07.271Z,23.20
2022-09-15T20:39:35.780Z,23.20
2022-09-15T20:42:03.240Z,23.20
2022-09-15T20:44:30.622Z,23.20
2022-09-15T20:46:58.134Z,23.10
2022-09-15T20:49:25.514Z,23.10
2022-09-15T20:51:53.026Z,23.10
2022-09-15T20:54:20.607Z,23.10
2022-09-15T20:56:48.002Z,23.10
2022-09-15T20:59:16.355Z,23.10
2022-09-15T21:01:43.778Z,23.10
2022-09-15T21:04:11.656Z,23.00
2022-09-15T21:06:39.363Z,22.90
2022-09-15T21:09:07.441Z,22.80
2022-09-15T21:11:35.503Z,22.70
2022-09-15T21:14:03.388Z,22.50
2022-09-15T21:16:31.401Z,22.40
2022-09-15T21:18:59.237Z,22.30
2022-09-15T21:21:30.111Z,22.10
2022-09-15T21:24:01.793Z,22.00
2022-09-15T21:26:31.603Z,22.00
2022-09-15T21:28:59.328Z,22.10
2022-09-15T21:31:30.026Z,22.10
2022-09-15T21:33:58.771Z,22.10
2022-09-15T21:36:31.377Z,22.20
2022-09-15T21:38:59.587Z,22.30
2022-09-15T21:41:30.056Z,22.30
2022-09-15T21:43:59.294Z,22.30
2022-09-15T21:46:29.707Z,22.30
2022-09-15T21:48:59.986Z,22.20
2022-09-15T21:51:29.121Z,22.20
2022-09-15T21:53:58.538Z,22.20
2022-09-15T21:56:27.747Z,22.20
2022-09-15T21:58:55.136Z,22.20
2022-09-15T22:01:25.785Z,22.30
2022-09-15T22:03:54.423Z,22.30
2022-09-15T22:06:27.748Z,22.30
2022-09-15T22:08:55.927Z,22.30
2022-09-15T22:11:23.909Z,22.30
2022-09-15T22:13:51.297Z,22.30
2022-09-15T22:16:21.391Z,22.30
2022-09-15T22:18:49.503Z,22.30
2022-09-15T22:21:22.434Z,22.30
2022-09-15T22:23:51.747Z,22.30
2022-09-15T22:26:21.946Z,22.30
2022-09-15T22:28:49.792Z,22.30
2022-09-15T22:31:19.317Z,22.30
2022-09-15T22:33:46.840Z,22.30
2022-09-15T22:36:17.148Z,22.20
2022-09-15T22:38:44.983Z,22.20
2022-09-15T22:41:15.140Z,22.20
2022-09-15T22:43:44.600Z,22.20
2022-09-15T22:46:12.213Z,22.20
2022-09-15T22:48:43.542Z,22.10
2022-09-15T22:51:11.992Z,22.00
2022-09-15T22:53:39.537Z,21.80
2022-09-15T22:56:14.454Z,21.70
2022-09-15T22:58:46.048Z,21.60
2022-09-15T23:01:18.982Z,21.50
2022-09-15T23:03:54.561Z,21.50
2022-09-15T23:06:22.957Z,21.50
2022-09-15T23:08:55.633Z,21.60
2022-09-15T23:11:24.058Z,21.60
2022-09-15T23:13:52.619Z,21.50
2022-09-15T23:16:20.102Z,21.40
2022-09-15T23:18:48.293Z,21.40
2022-09-15T23:21:15.787Z,21.50
2022-09-15T23:23:46.668Z,21.50
2022-09-15T23:26:16.674Z,21.50
2022-09-15T23:28:44.059Z,21.50
2022-09-15T23:31:12.982Z,21.40
2022-09-15T23:33:41.561Z,21.40
2022-09-15T23:36:14.923Z,21.30
2022-09-15T23:38:44.383Z,21.30
2022-09-15T23:41:13.387Z,21.40
2022-09-15T23:43:40.973Z,21.30
2022-09-15T23:46:08.820Z,21.30
2022-09-15T23:48:36.509Z,21.30
2022-09-15T23:51:04.573Z,21.30
2022-09-15T23:53:32.252Z,21.30
2022-09-15T23:55:59.680Z,21.30
2022-09-15T23:58:27.538Z,21.20
